Time;durP1;ratioP1;P1;durP2;ratioP2;P2;SDS_P1;SDS_P2;PMS_P1;PMS_P2;Temp;Humidity;BMP_temperature;BMP_pressure;BME280_temperature;BME280_humidity;BME280_pressure;Samples;Min_cycle;Max_cycle;Signal;HPM_P1;HPM_P2
2023/08/02 00:01:51;;;;;;;0.20;0.17;;;;;;;21.90;100.00;100154.88;10537832;28;20040;-75
2023/08/02 00:06:53;;;;;;;2.63;0.38;;;;;;;21.53;100.00;100149.03;10504863;28;20083;-76
2023/08/02 00:11:56;;;;;;;1.23;0.50;;;;;;;21.46;100.00;100148.38;10504412;28;20127;-76
2023/08/02 00:16:57;;;;;;;0.10;0.10;;;;;;;21.50;100.00;100144.75;10520929;28;20059;-76
2023/08/02 00:21:59;;;;;;;0.30;0.15;;;;;;;21.52;100.00;100136.88;10520820;28;20405;-74
2023/08/02 00:27:01;;;;;;;0.28;0.20;;;;;;;21.98;100.00;100108.28;10504026;28;20048;-76
2023/08/02 00:32:03;;;;;;;0.55;0.40;;;;;;;21.88;100.00;100094.66;10503886;28;20479;-75
2023/08/02 00:37:04;;;;;;;0.10;0.10;;;;;;;21.71;100.00;100103.06;10503744;28;20044;-75
2023/08/02 00:42:06;;;;;;;0.68;0.32;;;;;;;21.46;100.00;100098.59;10510927;28;20486;-76
2023/08/02 00:47:08;;;;;;;0.00;0.00;;;;;;;21.22;100.00;100098.47;10512012;28;20139;-76
2023/08/02 00:52:09;;;;;;;7.50;0.60;;;;;;;21.53;100.00;100081.78;10527903;28;20134;-76
2023/08/02 00:57:11;;;;;;;0.00;0.00;;;;;;;21.41;100.00;100108.34;10511691;28;20051;-76
2023/08/02 01:02:13;;;;;;;0.30;0.25;;;;;;;21.64;100.00;100088.44;10544675;28;20036;-75
2023/08/02 01:07:26;;;;;;;0.85;0.38;;;;;;;21.17;100.00;100079.44;10511292;28;20048;-76
2023/08/02 01:12:30;;;;;;;0.52;0.28;;;;;;;20.68;100.00;100078.25;10510678;28;20505;-76
2023/08/02 01:17:32;;;;;;;0.70;0.28;;;;;;;21.13;100.00;100064.69;10488946;28;20055;-75
2023/08/02 01:22:34;;;;;;;0.10;0.05;;;;;;;21.05;100.00;100083.28;10527192;28;20044;-75
2023/08/02 01:27:47;;;;;;;0.00;0.00;;;;;;;20.64;100.00;100084.47;10510353;28;20409;-75
2023/08/02 01:32:49;;;;;;;0.05;0.05;;;;;;;20.65;100.00;100083.59;10509850;28;20124;-76
2023/08/02 01:37:51;;;;;;;0.17;0.10;;;;;;;20.33;100.00;100080.13;10510122;28;20138;-77
2023/08/02 01:42:52;;;;;;;0.10;0.00;;;;;;;20.88;100.00;100075.94;10510026;28;20071;-75
2023/08/02 01:47:55;;;;;;;11.88;2.53;;;;;;;20.72;100.00;100082.50;10526160;28;20050;-76
2023/08/02 01:52:57;;;;;;;0.15;0.10;;;;;;;20.42;100.00;100090.34;10483116;28;20074;-76
2023/08/02 01:58:00;;;;;;;0.22;0.22;;;;;;;21.05;100.00;100069.31;10509155;28;20068;-75
2023/08/02 02:03:01;;;;;;;1.77;0.50;;;;;;;20.72;100.00;100057.22;10502121;28;20522;-76
2023/08/02 02:08:03;;;;;;;0.22;0.17;;;;;;;20.63;100.00;100040.91;10525404;28;20044;-76
2023/08/02 02:13:05;;;;;;;0.75;0.15;;;;;;;20.19;100.00;100031.66;10501150;28;20067;-76
2023/08/02 02:18:07;;;;;;;0.10;0.00;;;;;;;20.13;100.00;100037.06;10516503;28;20051;-75
2023/08/02 02:23:09;;;;;;;0.68;0.15;;;;;;;20.68;100.00;100023.28;10538856;28;20380;-76
2023/08/02 02:28:11;;;;;;;0.85;0.43;;;;;;;20.66;100.00;100019.88;10524617;28;20150;-76
2023/08/02 02:33:13;;;;;;;0.75;0.08;;;;;;;20.64;100.00;99990.28;10507847;28;20371;-76
2023/08/02 02:38:15;;;;;;;0.88;0.43;;;;;;;20.27;100.00;99993.09;10524452;28;20040;-76
2023/08/02 02:43:16;;;;;;;0.10;0.10;;;;;;;20.63;100.00;99973.69;10542490;28;20036;-76
2023/08/02 02:48:18;;;;;;;0.22;0.13;;;;;;;21.04;100.00;99957.63;10540856;28;20410;-75
2023/08/02 02:53:22;;;;;;;0.10;0.05;;;;;;;21.13;100.00;99938.16;10537745;28;20517;-76
2023/08/02 02:58:24;;;;;;;0.20;0.20;;;;;;;20.83;100.00;99922.53;10541703;28;20548;-75
2023/08/02 03:03:26;;;;;;;0.77;0.08;;;;;;;20.79;100.00;99927.00;10506589;28;20044;-76
2023/08/02 03:08:28;;;;;;;2.78;0.38;;;;;;;20.91;100.00;99925.75;10522809;28;20052;-76
2023/08/02 03:13:29;;;;;;;0.25;0.25;;;;;;;20.61;100.00;99916.19;10506210;28;20131;-76
2023/08/02 03:18:31;;;;;;;0.00;0.00;;;;;;;20.53;100.00;99902.47;10522626;28;20047;-75
2023/08/02 03:23:34;;;;;;;0.22;0.22;;;;;;;21.35;100.00;99914.69;10522654;28;20044;-75
2023/08/02 03:28:36;;;;;;;0.38;0.25;;;;;;;21.08;100.00;99901.63;10522769;28;20036;-76
2023/08/02 03:33:38;;;;;;;0.30;0.20;;;;;;;21.26;100.00;99896.69;10522110;28;20056;-77
2023/08/02 03:38:39;;;;;;;0.25;0.10;;;;;;;20.94;100.00;99881.13;10505567;28;20058;-76
2023/08/02 03:43:41;;;;;;;0.32;0.10;;;;;;;21.22;100.00;99873.19;10505107;28;20483;-76
2023/08/02 03:48:42;;;;;;;0.75;0.15;;;;;;;21.05;100.00;99854.59;10504962;28;20069;-76
2023/08/02 03:53:44;;;;;;;0.10;0.00;;;;;;;20.95;100.00;99855.84;10504724;28;20483;-76
2023/08/02 03:58:46;;;;;;;1.10;0.43;;;;;;;20.78;100.00;99849.41;10521445;28;20050;-76
2023/08/02 04:03:48;;;;;;;0.00;0.00;;;;;;;21.38;100.00;99849.09;10521644;28;20169;-75
2023/08/02 04:08:49;;;;;;;0.10;0.00;;;;;;;21.41;100.00;99851.56;10539547;28;20048;-75
2023/08/02 04:13:51;;;;;;;0.03;0.03;;;;;;;20.92;100.00;99844.53;10522881;28;20043;-76
2023/08/02 04:18:53;;;;;;;1.08;0.47;;;;;;;21.36;100.00;99827.31;10529441;28;20533;-76
2023/08/02 04:23:54;;;;;;;0.35;0.20;;;;;;;21.53;100.00;99817.09;10529849;28;20055;-76
2023/08/02 04:28:56;;;;;;;1.85;0.40;;;;;;;21.49;100.00;99818.09;10513007;28;20465;-77
2023/08/02 04:33:58;;;;;;;0.10;0.10;;;;;;;21.40;100.00;99800.13;10529074;28;20048;-76
2023/08/02 04:39:02;;;;;;;1.85;0.60;;;;;;;22.17;100.00;99784.06;10512208;28;20048;-75
2023/08/02 04:44:04;;;;;;;0.03;0.03;;;;;;;22.02;100.00;99787.31;10529313;28;20042;-75
2023/08/02 04:49:05;;;;;;;0.38;0.10;;;;;;;22.03;100.00;99765.41;10528427;28;20062;-77
2023/08/02 04:54:07;;;;;;;0.25;0.25;;;;;;;21.95;100.00;99754.38;10511783;28;20047;-76
2023/08/02 04:59:10;;;;;;;1.00;0.28;;;;;;;21.74;100.00;99738.59;10528056;28;20071;-76
2023/08/02 05:04:13;;;;;;;1.05;0.40;;;;;;;21.98;100.00;99720.19;10527695;28;20414;-76
2023/08/02 05:09:14;;;;;;;0.32;0.08;;;;;;;22.12;100.00;99712.59;10527617;28;20054;-76
2023/08/02 05:14:16;;;;;;;0.13;0.13;;;;;;;21.90;100.00;99706.53;10527227;28;20041;-76
2023/08/02 05:19:18;;;;;;;0.20;0.20;;;;;;;21.77;100.00;99707.03;10527203;28;20052;-77
2023/08/02 05:24:19;;;;;;;0.20;0.20;;;;;;;21.87;100.00;99695.22;10526806;28;20036;-76
2023/08/02 05:29:21;;;;;;;0.15;0.10;;;;;;;21.79;100.00;99671.09;10526966;28;20509;-76
2023/08/02 05:34:23;;;;;;;0.00;0.00;;;;;;;21.91;100.00;99664.50;10526409;28;20048;-76
2023/08/02 05:39:25;;;;;;;0.10;0.00;;;;;;;22.13;100.00;99656.59;10527474;28;20097;-76
2023/08/02 05:44:27;;;;;;;0.40;0.20;;;;;;;21.99;100.00;99641.44;10526824;28;20047;-75
2023/08/02 05:49:29;;;;;;;0.20;0.00;;;;;;;21.95;100.00;99628.50;10526145;28;20051;-76
2023/08/02 05:54:30;;;;;;;0.00;0.00;;;;;;;21.80;100.00;99611.66;10542499;28;20055;-76
2023/08/02 05:59:32;;;;;;;0.85;0.20;;;;;;;21.96;100.00;99617.09;10525898;28;20511;-76
2023/08/02 06:04:36;;;;;;;0.00;0.00;;;;;;;21.70;100.00;99616.44;10525590;28;20044;-76
2023/08/02 06:09:38;;;;;;;0.00;0.00;;;;;;;21.79;100.00;99609.94;10524953;28;20052;-76
2023/08/02 06:14:40;;;;;;;0.17;0.13;;;;;;;22.47;100.00;99597.44;10542050;28;20131;-76
2023/08/02 06:19:41;;;;;;;0.10;0.10;;;;;;;22.18;100.00;99580.34;10524792;28;20135;-75
2023/08/02 06:24:43;;;;;;;5.05;0.55;;;;;;;22.52;100.00;99567.53;10524509;28;20524;-75
2023/08/02 06:29:45;;;;;;;0.10;0.10;;;;;;;22.59;100.00;99568.97;10524582;28;20044;-76
2023/08/02 06:34:47;;;;;;;0.73;0.13;;;;;;;21.78;100.00;99567.16;10524121;28;20040;-76
2023/08/02 06:39:48;;;;;;;0.17;0.17;;;;;;;22.32;100.00;99551.72;10522960;28;20056;-76
2023/08/02 06:44:50;;;;;;;0.55;0.22;;;;;;;21.96;100.00;99522.72;10523638;28;20051;-77
2023/08/02 06:49:51;;;;;;;0.13;0.13;;;;;;;21.80;100.00;99522.53;10523230;28;20052;-77
2023/08/02 06:54:53;;;;;;;0.08;0.08;;;;;;;22.21;100.00;99511.16;10506116;28;20148;-77
2023/08/02 06:59:56;;;;;;;0.35;0.28;;;;;;;22.15;100.00;99497.38;10503298;28;20044;-77
2023/08/02 07:04:57;;;;;;;0.90;0.30;;;;;;;22.32;100.00;99486.13;10505655;28;20054;-77
2023/08/02 07:09:59;;;;;;;0.10;0.10;;;;;;;22.22;100.00;99476.13;10531999;28;20102;-78
2023/08/02 07:15:01;;;;;;;0.22;0.22;;;;;;;21.91;100.00;99451.28;10523128;28;20044;-77
2023/08/02 07:20:03;;;;;;;0.10;0.10;;;;;;;22.21;100.00;99446.41;10520891;28;20044;-78
2023/08/02 07:25:04;;;;;;;0.22;0.17;;;;;;;21.26;100.00;99448.78;10538995;28;20044;-77
2023/08/02 07:30:07;;;;;;;0.00;0.00;;;;;;;22.04;100.00;99423.59;10512243;28;20055;-77
2023/08/02 07:35:08;;;;;;;0.52;0.47;;;;;;;22.03;100.00;99411.38;10503331;28;20044;-78
2023/08/02 07:40:10;;;;;;;0.43;0.38;;;;;;;22.19;100.00;99395.78;10502667;28;20090;-78
2023/08/02 07:45:12;;;;;;;0.82;0.50;;;;;;;21.77;100.00;99376.72;10537495;28;20042;-77
2023/08/02 07:50:13;;;;;;;0.10;0.10;;;;;;;21.40;100.00;99363.44;10518139;28;20039;-78
2023/08/02 07:55:15;;;;;;;0.93;0.60;;;;;;;21.77;100.00;99340.03;10535582;28;20036;-78
2023/08/02 08:00:17;;;;;;;0.32;0.20;;;;;;;21.35;100.00;99334.00;10500644;28;20048;-78
2023/08/02 08:05:18;;;;;;;0.70;0.30;;;;;;;22.18;100.00;99318.88;10485847;28;20492;-79
2023/08/02 08:10:20;;;;;;;0.52;0.45;;;;;;;21.31;100.00;99300.13;10517554;28;20486;-79
2023/08/02 08:15:21;;;;;;;0.45;0.45;;;;;;;21.22;100.00;99291.75;10501230;28;20127;-78
2023/08/02 08:20:23;;;;;;;1.50;0.85;;;;;;;22.05;100.00;99288.06;10516796;28;20052;-77
2023/08/02 08:25:25;;;;;;;0.43;0.43;;;;;;;22.04;100.00;99295.09;10516947;28;20044;-78
2023/08/02 08:30:26;;;;;;;0.20;0.20;;;;;;;21.91;100.00;99279.09;10492462;28;20047;-78
2023/08/02 08:35:28;;;;;;;0.00;0.00;;;;;;;22.01;100.00;99267.25;10502753;28;20055;-78
2023/08/02 08:40:30;;;;;;;0.55;0.20;;;;;;;22.24;100.00;99253.94;10516892;28;20143;-79
2023/08/02 08:45:32;;;;;;;0.10;0.10;;;;;;;22.17;100.00;99237.66;10516963;28;20048;-78
2023/08/02 08:50:34;;;;;;;1.08;0.52;;;;;;;22.11;100.00;99225.69;10495306;28;20489;-79
2023/08/02 08:55:40;;;;;;;0.00;0.00;;;;;;;23.20;100.00;99207.97;10516327;28;20067;-78
2023/08/02 09:00:42;;;;;;;0.00;0.00;;;;;;;23.12;100.00;99200.47;10518275;28;20052;-78
2023/08/02 09:05:44;;;;;;;0.10;0.10;;;;;;;22.84;100.00;99181.84;10524146;28;20428;-77
2023/08/02 09:10:46;;;;;;;0.17;0.17;;;;;;;22.26;100.00;99181.28;10522848;28;20044;-77
2023/08/02 09:16:03;;;;;;;1.17;0.90;;;;;;;22.24;100.00;99176.09;10517883;28;20043;-80
2023/08/02 09:21:06;;;;;;;0.15;0.05;;;;;;;22.65;100.00;99148.72;10518748;28;20040;-78
2023/08/02 09:26:13;;;;;;;0.60;0.40;;;;;;;22.79;100.00;99148.81;10506117;28;20146;-78
2023/08/02 09:31:17;;;;;;;0.10;0.08;;;;;;;23.11;100.00;99158.53;10521589;28;20044;-79
2023/08/02 09:36:29;;;;;;;0.45;0.08;;;;;;;22.88;100.00;99170.28;10517954;28;20050;-78
2023/08/02 09:41:31;;;;;;;0.10;0.10;;;;;;;23.06;100.00;99139.56;10531472;28;20040;-78
2023/08/02 09:46:53;;;;;;;0.38;0.17;;;;;;;23.27;100.00;99145.47;10506858;28;20101;-78
2023/08/02 09:51:54;;;;;;;0.32;0.30;;;;;;;22.67;100.00;99144.22;10505784;28;20147;-78
2023/08/02 09:56:57;;;;;;;0.38;0.30;;;;;;;23.35;100.00;99145.03;10519921;28;20040;-77
2023/08/02 10:02:00;;;;;;;0.20;0.10;;;;;;;23.43;100.00;99130.50;10513327;28;20398;-78
2023/08/02 10:07:06;;;;;;;0.75;0.43;;;;;;;23.30;100.00;99134.75;10499933;28;20048;-77
2023/08/02 10:12:13;;;;;;;0.00;0.00;;;;;;;23.96;100.00;99127.56;10511438;28;20036;-78
2023/08/02 10:17:16;;;;;;;2.53;0.80;;;;;;;24.05;100.00;99116.53;10498624;28;20040;-78
2023/08/02 10:22:19;;;;;;;0.50;0.22;;;;;;;23.50;100.00;99119.66;10519327;28;20134;-78
2023/08/02 10:27:22;;;;;;;0.40;0.20;;;;;;;24.45;100.00;99086.97;10505650;28;20048;-79
2023/08/02 10:32:23;;;;;;;0.43;0.40;;;;;;;24.34;100.00;99100.78;10519363;28;20082;-78
2023/08/02 10:37:53;;;;;;;0.68;0.13;;;;;;;24.08;100.00;99100.56;10537225;28;20061;-77
2023/08/02 10:43:06;;;;;;;0.45;0.25;;;;;;;24.97;100.00;99084.72;10502710;28;20047;-77
2023/08/02 10:48:25;;;;;;;0.00;0.00;;;;;;;24.84;100.00;99089.91;10534796;28;20625;-78
2023/08/02 10:53:27;;;;;;;0.00;0.00;;;;;;;25.10;100.00;99076.88;10519469;28;20094;-77
2023/08/02 10:58:50;;;;;;;0.40;0.20;;;;;;;25.43;100.00;99073.06;10513379;28;20418;-76
2023/08/02 11:03:52;;;;;;;0.00;0.00;;;;;;;25.83;100.00;99053.75;10519737;28;20135;-77
2023/08/02 11:08:54;;;;;;;0.20;0.10;;;;;;;25.31;100.00;99048.31;10519168;28;20399;-77
2023/08/02 11:13:55;;;;;;;0.10;0.10;;;;;;;24.89;100.00;99060.66;10518982;28;20036;-76
2023/08/02 11:18:58;;;;;;;0.00;0.00;;;;;;;25.66;100.00;99061.81;10535974;28;20517;-76
2023/08/02 11:24:01;;;;;;;0.43;0.20;;;;;;;25.10;100.00;99066.34;10512612;28;20036;-77
2023/08/02 11:29:07;;;;;;;0.10;0.10;;;;;;;25.65;100.00;99046.09;10495354;28;20483;-77
2023/08/02 11:34:12;;;;;;;0.15;0.13;;;;;;;25.70;100.00;99027.34;10500798;28;20050;-77
2023/08/02 11:39:18;;;;;;;1.08;0.45;;;;;;;25.75;100.00;99019.97;10518320;28;20079;-77
2023/08/02 11:44:20;;;;;;;0.35;0.20;;;;;;;26.33;100.00;98964.13;10505497;28;20495;-76
2023/08/02 11:49:22;;;;;;;0.20;0.20;;;;;;;26.41;100.00;98980.28;10518007;28;20060;-77
2023/08/02 11:54:24;;;;;;;0.22;0.20;;;;;;;26.82;100.00;98968.59;10529080;28;20048;-77
2023/08/02 11:59:25;;;;;;;1.25;0.63;;;;;;;26.09;100.00;98978.97;10495561;28;20052;-77
2023/08/02 12:04:38;;;;;;;0.20;0.20;;;;;;;26.70;100.00;98953.56;10517330;28;20040;-76
2023/08/02 12:09:42;;;;;;;0.38;0.20;;;;;;;27.19;100.00;98928.88;10512704;28;20162;-77
2023/08/02 12:14:44;;;;;;;0.20;0.10;;;;;;;27.39;100.00;98940.59;10506999;28;20487;-78
2023/08/02 12:19:46;;;;;;;0.13;0.03;;;;;;;28.00;100.00;98917.47;10515952;28;20406;-80
2023/08/02 12:25:05;;;;;;;0.00;0.00;;;;;;;28.28;100.00;98910.03;10519792;28;20044;-79
2023/08/02 12:30:10;;;;;;;0.00;0.00;;;;;;;28.81;100.00;98896.91;10523448;28;20497;-79
2023/08/02 12:35:13;;;;;;;0.00;0.00;;;;;;;28.31;100.00;98930.97;10521785;28;20122;-81
2023/08/02 12:40:15;;;;;;;0.22;0.10;;;;;;;26.94;100.00;98960.72;10502088;28;20511;-83
2023/08/02 12:45:17;;;;;;;0.00;0.00;;;;;;;25.93;100.00;98979.16;10523181;28;20036;-85
2023/08/02 12:50:19;;;;;;;0.00;0.00;;;;;;;26.31;100.00;98958.16;10505373;28;20075;-82
2023/08/02 12:55:20;;;;;;;0.15;0.15;;;;;;;27.14;100.00;98962.75;10532999;28;20135;-79
2023/08/02 13:00:22;;;;;;;0.10;0.10;;;;;;;27.53;100.00;98952.78;10507922;28;20048;-77
2023/08/02 13:05:24;;;;;;;0.55;0.20;;;;;;;26.85;100.00;98971.00;10505384;28;20052;-78
2023/08/02 13:10:27;;;;;;;0.45;0.20;;;;;;;27.28;100.00;98951.13;10524746;28;20047;-78
2023/08/02 13:15:29;;;;;;;1.25;0.10;;;;;;;26.66;100.00;98960.06;10523931;28;20568;-78
2023/08/02 13:20:30;;;;;;;0.10;0.10;;;;;;;27.74;100.00;98951.25;10499362;28;20044;-77
2023/08/02 13:25:33;;;;;;;0.00;0.00;;;;;;;27.57;100.00;98947.28;10521609;28;20087;-77
2023/08/02 13:30:35;;;;;;;0.20;0.20;;;;;;;27.82;100.00;98946.22;10506068;28;20158;-77
2023/08/02 13:35:37;;;;;;;0.10;0.10;;;;;;;27.77;100.00;98946.56;10503925;28;20040;-77
2023/08/02 13:40:38;;;;;;;0.00;0.00;;;;;;;28.07;100.00;98934.59;10506160;28;20062;-77
2023/08/02 13:45:40;;;;;;;0.00;0.00;;;;;;;28.06;100.00;98932.91;10519258;28;20048;-77
2023/08/02 13:50:42;;;;;;;0.00;0.00;;;;;;;28.13;100.00;98931.47;10518343;28;20047;-76
2023/08/02 13:55:44;;;;;;;0.00;0.00;;;;;;;28.80;100.00;98916.41;10524538;28;20651;-76
2023/08/02 14:00:46;;;;;;;0.00;0.00;;;;;;;28.15;100.00;98926.88;10518830;28;20482;-76
2023/08/02 14:05:48;;;;;;;0.00;0.00;;;;;;;28.65;100.00;98920.28;10511827;28;20047;-76
2023/08/02 14:10:50;;;;;;;1.00;0.20;;;;;;;28.41;100.00;98916.00;10523077;28;20051;-76
2023/08/02 14:15:51;;;;;;;0.00;0.00;;;;;;;28.02;100.00;98915.56;10520291;28;20036;-76
2023/08/02 14:20:53;;;;;;;0.05;0.05;;;;;;;28.98;100.00;98899.97;10505533;28;20398;-77
2023/08/02 14:25:54;;;;;;;0.00;0.00;;;;;;;28.90;100.00;98905.06;10522149;28;20048;-76
2023/08/02 14:30:59;;;;;;;0.08;0.08;;;;;;;29.49;100.00;98900.19;10521483;28;20040;-76
2023/08/02 14:36:01;;;;;;;0.00;0.00;;;;;;;27.82;100.00;98899.44;10521848;28;20075;-76
2023/08/02 14:41:03;;;;;;;0.60;0.52;;;;;;;27.51;100.00;98901.84;10513156;28;20047;-76
2023/08/02 14:46:06;;;;;;;0.80;0.45;;;;;;;27.98;100.00;98911.47;10523617;28;20047;-76
2023/08/02 14:51:08;;;;;;;0.00;0.00;;;;;;;28.47;100.00;98907.59;10524458;28;20046;-76
2023/08/02 14:56:10;;;;;;;0.50;0.35;;;;;;;28.74;100.00;98905.50;10491900;28;20036;-76
2023/08/02 15:01:11;;;;;;;0.00;0.00;;;;;;;27.89;100.00;98920.97;10520256;28;20144;-76
2023/08/02 15:06:13;;;;;;;0.00;0.00;;;;;;;28.24;100.00;98921.84;10504091;28;20098;-76
2023/08/02 15:11:15;;;;;;;0.00;0.00;;;;;;;28.46;100.00;98907.69;10528102;28;20047;-76
2023/08/02 15:16:16;;;;;;;0.00;0.00;;;;;;;28.22;100.00;98919.31;10514725;28;20062;-76
2023/08/02 15:21:18;;;;;;;0.10;0.10;;;;;;;28.58;100.00;98917.31;10519528;28;20044;-76
2023/08/02 15:26:20;;;;;;;0.10;0.10;;;;;;;27.88;100.00;98923.75;10502499;28;20139;-75
2023/08/02 15:31:21;;;;;;;0.00;0.00;;;;;;;27.30;100.00;98928.06;10519300;28;20052;-75
2023/08/02 15:36:23;;;;;;;0.00;0.00;;;;;;;27.74;100.00;98933.56;10503136;28;20101;-77
2023/08/02 15:41:25;;;;;;;0.00;0.00;;;;;;;27.03;100.00;98933.63;10519543;28;20055;-76
2023/08/02 15:46:27;;;;;;;0.25;0.22;;;;;;;27.57;100.00;98941.97;10502723;28;20039;-76
2023/08/02 15:51:28;;;;;;;1.17;0.47;;;;;;;27.39;100.00;98940.59;10502240;28;20059;-75
2023/08/02 15:56:30;;;;;;;0.00;0.00;;;;;;;27.72;100.00;98946.09;10518995;28;20044;-76
2023/08/02 16:01:32;;;;;;;0.00;0.00;;;;;;;27.02;100.00;98953.06;10536677;28;20044;-76
2023/08/02 16:06:33;;;;;;;0.00;0.00;;;;;;;25.84;100.00;98956.03;10537144;28;20051;-75
2023/08/02 16:11:35;;;;;;;0.05;0.03;;;;;;;26.17;100.00;98959.97;10535928;28;20035;-76
2023/08/02 16:16:36;;;;;;;0.00;0.00;;;;;;;26.44;100.00;98949.22;10531430;28;20483;-76
2023/08/02 16:21:38;;;;;;;0.20;0.08;;;;;;;26.26;100.00;98955.84;10518539;28;20051;-75
2023/08/02 16:26:40;;;;;;;0.03;0.00;;;;;;;26.53;100.00;98963.59;10498932;28;20048;-75
2023/08/02 16:31:42;;;;;;;0.00;0.00;;;;;;;26.58;100.00;98972.00;10501884;28;20127;-75
2023/08/02 16:36:44;;;;;;;0.00;0.00;;;;;;;23.59;100.00;99032.41;10519398;28;20429;-75
2023/08/02 16:41:45;;;;;;;0.70;0.20;;;;;;;23.39;100.00;99005.50;10535282;28;20036;-76
2023/08/02 16:46:47;;;;;;;0.03;0.03;;;;;;;23.86;100.00;99010.69;10515213;28;20048;-75
2023/08/02 16:51:49;;;;;;;0.03;0.03;;;;;;;24.17;100.00;98999.19;10509117;28;20490;-75
2023/08/02 16:56:51;;;;;;;0.00;0.00;;;;;;;25.41;100.00;98995.88;10515995;28;20050;-76
2023/08/02 17:01:53;;;;;;;0.17;0.13;;;;;;;25.45;100.00;98997.34;10516873;28;20040;-75
2023/08/02 17:06:54;;;;;;;0.52;0.20;;;;;;;25.49;100.00;98998.84;10500247;28;20456;-75
2023/08/02 17:11:56;;;;;;;0.00;0.00;;;;;;;24.48;100.00;99017.50;10499969;28;20052;-75
2023/08/02 17:16:58;;;;;;;0.13;0.10;;;;;;;24.80;100.00;99018.13;10500825;28;20040;-75
2023/08/02 17:21:59;;;;;;;0.00;0.00;;;;;;;25.00;100.00;99008.13;10537259;28;20051;-76
2023/08/02 17:27:01;;;;;;;0.28;0.10;;;;;;;25.24;100.00;99000.41;10506650;28;20552;-75
2023/08/02 17:32:03;;;;;;;0.00;0.00;;;;;;;25.17;100.00;98989.44;10523680;28;20055;-76
2023/08/02 17:37:05;;;;;;;0.30;0.10;;;;;;;25.00;100.00;98992.34;10523804;28;20138;-75
2023/08/02 17:42:08;;;;;;;0.00;0.00;;;;;;;25.66;100.00;98995.91;10507072;28;20040;-75
2023/08/02 17:47:10;;;;;;;0.00;0.00;;;;;;;25.41;100.00;99001.13;10528240;28;20475;-76
2023/08/02 17:52:11;;;;;;;0.28;0.25;;;;;;;25.32;100.00;99003.41;10507278;28;20051;-76
2023/08/02 17:57:13;;;;;;;0.32;0.00;;;;;;;25.32;100.00;98999.91;10522855;28;20384;-76
2023/08/02 18:02:15;;;;;;;0.00;0.00;;;;;;;25.10;100.00;99008.38;10506523;28;20130;-75
2023/08/02 18:07:16;;;;;;;0.00;0.00;;;;;;;24.96;100.00;99011.91;10541512;28;20036;-74
2023/08/02 18:12:18;;;;;;;0.00;0.00;;;;;;;25.04;100.00;99014.88;10523040;28;20047;-75
2023/08/02 18:17:20;;;;;;;0.00;0.00;;;;;;;25.03;100.00;99008.78;10522807;28;20079;-75
2023/08/02 18:22:21;;;;;;;0.00;0.00;;;;;;;24.70;100.00;99015.25;10523961;28;20047;-76
2023/08/02 18:27:23;;;;;;;0.03;0.03;;;;;;;24.70;100.00;99017.88;10506818;28;20056;-76
2023/08/02 18:32:24;;;;;;;0.00;0.00;;;;;;;24.73;100.00;99016.00;10522128;28;20058;-76
2023/08/02 18:37:26;;;;;;;0.38;0.13;;;;;;;24.94;100.00;99008.53;10522894;28;20471;-76
2023/08/02 18:42:28;;;;;;;0.10;0.10;;;;;;;24.70;100.00;99011.78;10525393;28;20079;-75
2023/08/02 18:47:29;;;;;;;0.00;0.00;;;;;;;24.35;100.00;99014.81;10530465;28;20051;-76
2023/08/02 18:52:34;;;;;;;0.00;0.00;;;;;;;24.43;100.00;99030.13;10498346;28;20545;-75
2023/08/02 18:57:36;;;;;;;0.00;0.00;;;;;;;24.12;100.00;99030.22;10518804;28;20399;-75
2023/08/02 19:02:38;;;;;;;0.00;0.00;;;;;;;24.33;100.00;99029.84;10519851;28;20568;-75
2023/08/02 19:07:40;;;;;;;0.00;0.00;;;;;;;23.86;100.00;99037.00;10496511;28;20495;-75
2023/08/02 19:12:42;;;;;;;0.00;0.00;;;;;;;24.01;100.00;99030.84;10496343;28;20131;-75
2023/08/02 19:17:45;;;;;;;0.00;0.00;;;;;;;23.92;100.00;99039.25;10519757;28;20048;-75
2023/08/02 19:22:47;;;;;;;3.92;1.27;;;;;;;23.42;100.00;99044.72;10523167;28;20044;-76
2023/08/02 19:27:49;;;;;;;0.00;0.00;;;;;;;23.67;100.00;99048.56;10520654;28;20052;-76
2023/08/02 19:32:51;;;;;;;0.13;0.00;;;;;;;23.27;100.00;99056.13;10512769;28;20059;-76
2023/08/02 19:37:53;;;;;;;2.63;0.35;;;;;;;23.03;100.00;99053.91;10531339;28;20036;-76
2023/08/02 19:42:55;;;;;;;0.10;0.00;;;;;;;22.67;100.00;99052.38;10518612;28;20032;-76
2023/08/02 19:47:57;;;;;;;0.00;0.00;;;;;;;22.80;100.00;99045.53;10522934;28;20052;-76
2023/08/02 19:52:58;;;;;;;0.00;0.00;;;;;;;22.84;100.00;99043.56;10533165;28;20048;-75
2023/08/02 19:58:00;;;;;;;0.00;0.00;;;;;;;22.37;100.00;99052.19;10516934;28;20051;-75
2023/08/02 20:03:03;;;;;;;0.25;0.17;;;;;;;22.54;100.00;99051.31;10518211;28;20072;-76
2023/08/02 20:08:08;;;;;;;0.00;0.00;;;;;;;22.99;100.00;99041.88;10518379;28;20456;-75
2023/08/02 20:13:16;;;;;;;0.00;0.00;;;;;;;22.62;100.00;99059.63;10518739;28;20040;-75
2023/08/02 20:18:17;;;;;;;0.00;0.00;;;;;;;22.32;100.00;99058.53;10502568;28;20059;-76
2023/08/02 20:23:25;;;;;;;0.08;0.08;;;;;;;22.66;100.00;99058.53;10518624;28;20043;-75
2023/08/02 20:28:35;;;;;;;0.00;0.00;;;;;;;22.41;100.00;99057.22;10501888;28;20040;-75
2023/08/02 20:33:37;;;;;;;0.03;0.03;;;;;;;22.88;100.00;99052.13;10510989;28;20257;-76
2023/08/02 20:38:44;;;;;;;0.00;0.00;;;;;;;22.82;100.00;99050.69;10517591;28;20059;-76
2023/08/02 20:43:47;;;;;;;0.00;0.00;;;;;;;22.98;100.00;99035.78;10517560;28;20113;-75
2023/08/02 20:48:58;;;;;;;0.00;0.00;;;;;;;23.27;100.00;99021.97;10503513;28;20044;-75
2023/08/02 20:54:04;;;;;;;0.00;0.00;;;;;;;23.56;100.00;99019.47;10517842;28;20101;-75
2023/08/02 20:59:11;;;;;;;0.00;0.00;;;;;;;22.91;100.00;99033.56;10524039;28;20042;-75
2023/08/02 21:04:13;;;;;;;0.10;0.10;;;;;;;22.91;100.00;99044.06;10516613;28;20054;-76
2023/08/02 21:09:18;;;;;;;0.00;0.00;;;;;;;22.43;100.00;99039.63;10526147;28;20062;-75
2023/08/02 21:14:21;;;;;;;0.00;0.00;;;;;;;23.19;100.00;99032.06;10542807;28;20079;-75
2023/08/02 21:19:22;;;;;;;0.00;0.00;;;;;;;22.90;100.00;99031.88;10525401;28;20048;-76
2023/08/02 21:24:24;;;;;;;1.33;0.63;;;;;;;23.09;100.00;99027.31;10525362;28;20055;-75
2023/08/02 21:29:26;;;;;;;0.17;0.17;;;;;;;22.40;100.00;99026.66;10525612;28;20101;-75
2023/08/02 21:34:28;;;;;;;0.00;0.00;;;;;;;23.22;100.00;99016.13;10543267;28;20036;-76
2023/08/02 21:39:32;;;;;;;3.72;1.00;;;;;;;23.47;100.00;99002.41;10525483;28;20048;-76
2023/08/02 21:44:33;;;;;;;0.00;0.00;;;;;;;23.19;100.00;99003.19;10516812;28;20119;-75
2023/08/02 21:49:35;;;;;;;0.00;0.00;;;;;;;23.56;100.00;99006.31;10525017;28;20047;-76
2023/08/02 21:54:38;;;;;;;0.00;0.00;;;;;;;23.18;100.00;98998.84;10524567;28;20686;-75
2023/08/02 21:59:40;;;;;;;0.00;0.00;;;;;;;23.31;100.00;98989.34;10507841;28;20055;-75
2023/08/02 22:04:43;;;;;;;0.05;0.05;;;;;;;23.49;100.00;98994.47;10514175;28;20063;-75
2023/08/02 22:09:52;;;;;;;0.60;0.60;;;;;;;23.08;100.00;98986.22;10506239;28;20052;-76
2023/08/02 22:15:04;;;;;;;0.00;0.00;;;;;;;22.87;100.00;98982.16;10524438;28;20040;-76
2023/08/02 22:20:08;;;;;;;0.00;0.00;;;;;;;23.28;100.00;98968.47;10524401;28;20044;-75
2023/08/02 22:25:10;;;;;;;4.75;0.08;;;;;;;22.97;100.00;98970.22;10523345;28;20046;-76
2023/08/02 22:30:11;;;;;;;0.20;0.20;;;;;;;24.27;100.00;98960.00;10523264;28;20040;-75
2023/08/02 22:35:13;;;;;;;0.38;0.10;;;;;;;23.84;100.00;98949.47;10523133;28;20040;-76
2023/08/02 22:40:15;;;;;;;0.00;0.00;;;;;;;23.84;100.00;98949.47;10506142;28;20044;-75
2023/08/02 22:45:17;;;;;;;0.00;0.00;;;;;;;23.38;100.00;98937.28;10506006;28;20434;-75
2023/08/02 22:50:19;;;;;;;0.47;0.00;;;;;;;23.48;100.00;98933.16;10522555;28;20063;-74
2023/08/02 22:55:23;;;;;;;1.98;0.45;;;;;;;23.10;100.00;98929.19;10503840;28;20051;-76
2023/08/02 23:00:27;;;;;;;0.10;0.10;;;;;;;23.13;100.00;98921.13;10504656;28;20407;-75
2023/08/02 23:05:29;;;;;;;0.03;0.00;;;;;;;22.86;100.00;98918.28;10504442;28;20044;-76
2023/08/02 23:10:39;;;;;;;0.00;0.00;;;;;;;22.50;100.00;98917.66;10504997;28;20059;-74